Aviation Digital Data Service (ADDS)

Output produced by METARs form (1413 UTC 10 July 2020)
found at http://www.aviationweather.gov/metar/data/
 
KGWO 101353Z AUTO 23004KT 10SM OVC034 28/26 A2999 RMK AO2 SLP154 T02780256
KGWO 101253Z AUTO 20004KT 10SM CLR 27/25 A2997 RMK AO2 SLP148 T02670250
KGWO 101153Z AUTO 00000KT 8SM CLR 24/23 A2997 RMK AO2 SLP146 70070 T02440233 10244 20228 52009
KGWO 101053Z AUTO 00000KT 8SM CLR 23/22 A2997 RMK AO2 SLP145 T02330222
KGWO 100953Z AUTO 00000KT 9SM OVC043 23/22 A2995 RMK AO2 SLP139 T02330222
KGWO 100853Z AUTO 00000KT 4SM BR CLR 23/22 A2994 RMK AO2 SLP138 T02280222 58001
KGWO 100753Z AUTO 00000KT 8SM CLR 23/22 A2995 RMK AO2 SLP139 T02280222
KGWO 100653Z AUTO 00000KT 9SM CLR 23/22 A2995 RMK AO2 SLP139 T02330222
KGWO 100553Z AUTO 35003KT 9SM CLR 23/22 A2995 RMK AO2 SLP139 T02330222 10239 20233 403220228 53011
KGWO 100453Z AUTO 00000KT 10SM CLR 24/22 A2993 RMK AO2 SLP134 T02390222
KGWO 100353Z AUTO 09003KT 10SM CLR 23/22 A2993 RMK AO2 SLP132 T02330222
KGWO 100253Z AUTO 06003KT 10SM CLR 24/23 A2992 RMK AO2 SLP128 T02390228 53008
KGWO 100153Z AUTO 00000KT 10SM CLR 24/23 A2989 RMK AO2 SLP120 T02390228
KGWO 100053Z AUTO 21003KT 10SM FEW110 23/22 A2989 RMK AO2 SLP118 T02330222
KGWO 092353Z AUTO 16007KT 10SM CLR 24/22 A2989 RMK AO2 LTG DSNT S RAE32 TSE03 SLP119 P0003 60040 T02390222 10322 20228 58006
KGWO 092326Z AUTO 00000KT 10SM -RA SCT048 SCT070 BKN110 23/22 A2991 RMK AO2 LTG DSNT SE-W TSE03 P0003 T02280217
KGWO 092303Z AUTO 05006KT 5SM VCTS -RA BR BKN036 BKN043 OVC100 23/21 A2994 RMK AO2 LTG DSNT ALQDS TSE03 P0003 T02330211
KGWO 092301Z AUTO 08007KT 2 1/2SM TSRA BR BKN032 BKN043 OVC100 23/21 A2993 RMK AO2 LTG DSNT ALQDS PRESFR P0003 T02330211
KGWO 092253Z AUTO VRB05KT 3/4SM +TSRA BR FEW009 BKN021 OVC070 23/22 A2995 RMK AO2 PK WND 34028/2236 LTG DSNT ALQDS RAB30 TSB29 SLP140 P0037 T02330217
KGWO 092248Z AUTO VRB06G18KT 1SM +TSRA BR FEW007 BKN019 OVC070 23/22 A2997 RMK AO2 PK WND 34028/2236 LTG DSNT ALQDS RAB30 TSB29 P0025
KGWO 092235Z AUTO 36011G17KT 1 3/4SM +TSRA BR FEW014 BKN020 OVC070 25/23 A2996 RMK AO2 VIS 3/4V5 LTG DSNT ALQDS RAB30 TSB29 P0011 T02500233
KGWO 092231Z AUTO 31009G17KT 4SM -TSRA FEW014 BKN020 OVC070 26/23 A2996 RMK AO2 LTG DSNT ALQDS RAB30 TSB29 PRESRR P0004 T02610233
KGWO 092200Z AUTO 24004KT 10SM VCTS FEW060 FEW075 SCT110 30/26 A2990 RMK AO2 LTG DSNT W-NE T03000256
KGWO 092153Z AUTO 23004KT 10SM FEW065 FEW110 30/26 A2991 RMK AO2 LTG DSNT ALQDS SLP125 T03000256
KGWO 092053Z AUTO 22007KT 10SM CLR 32/27 A2992 RMK AO2 LTG DSNT W SLP128 60000 T03220267 55013
KGWO 091953Z AUTO VRB06KT 10SM CLR 32/26 A2991 RMK AO2 LTG DSNT S SLP126 T03220261
KGWO 091853Z AUTO 00000KT 10SM FEW045 30/26 A2993 RMK AO2 LTG DSNT SE AND SW RAE04 SLP134 P0000 T03000261
KGWO 091805Z AUTO 06004KT 10SM FEW012 BKN046 OVC070 27/26 A2996 RMK AO2 LTG DSNT SE-SW RAE04 P0000 T02670256
KGWO 091759Z AUTO 07004KT 2 1/2SM -RA BR BKN016 BKN026 OVC070 27/25 A2996 RMK AO2 LTG DSNT S P0000 T02670250
KGWO 091753Z AUTO 04003KT 1/2SM VCTS +RA FG BKN018 BKN024 OVC046 26/25 A2996 RMK AO2 LTG DSNT S RAB18E27B42 SLP142 P0030 60030 T02610250 10294 20256 50008
KGWO 091747Z AUTO VRB03KT 3/4SM VCTS +RA BR BKN018 OVC026 27/25 A2997 RMK AO2 LTG DSNT S RAB18E27B42 P0022
KGWO 091728Z AUTO 01004KT 10SM VCTS FEW018 BKN024 OVC047 28/24 A2996 RMK AO2 RAB18E27 P0000 T02830244
KGWO 091653Z AUTO 00000KT 10SM BKN016 BKN060 OVC070 29/25 A2996 RMK AO2 SLP143 T02890250
KGWO 091553Z AUTO 17005KT 10SM FEW110 28/26 A2993 RMK AO2 RAE1459 SLP134 P0000 T02830256
KGWO 091526Z AUTO 00000KT 10SM SCT015 BKN090 BKN110 27/25 A2995 RMK AO2 RAE1459 P0000 T02670250
KGWO 091520Z AUTO 22003KT 10SM BKN013 OVC100 27/25 A2996 RMK AO2 RAE1459 P0000 T02670250
KGWO 091514Z AUTO 23005KT 10SM SCT012 BKN110 27/25 A2996 RMK AO2 RAE1459 P0000 T02670250
KGWO 091504Z AUTO 22004KT 10SM BKN010 BKN044 OVC110 26/25 A2995 RMK AO2 RAE1459 P0000 T02610250
KGWO 091453Z AUTO 24003KT 8SM -RA SCT012 BKN044 BKN075 27/25 A2995 RMK AO2 RAB45 SLP139 P0000 60000 T02670250 53002
KGWO 091425Z AUTO 22004KT 10SM SCT010 BKN041 OVC070 27/24 A2994 RMK AO2 T02720244
KGWO 091353Z AUTO 20005KT 10SM BKN010 28/25 A2994 RMK AO2 LTG DSNT NW CIG 008V014 SLP137 T02780250
KGWO 091321Z AUTO 21005KT 10SM OVC010 27/25 A2995 RMK AO2 LTG DSNT W CIG 006V013 T02720250
KGWO 091253Z AUTO 21005KT 8SM BKN008 OVC012 27/25 A2994 RMK AO2 LTG DSNT S CIG 004V010 SLP136 T02670250
KGWO 091248Z AUTO 21005KT 8SM FEW005 BKN010 27/25 A2994 RMK AO2 LTG DSNT S CIG 008V014
KGWO 091153Z AUTO 00000KT 9SM OVC008 25/24 A2993 RMK AO2 LTG DSNT SW SLP134 70069 T02500244 10250 20239 53011
KGWO 091107Z AUTO 00000KT 9SM OVC009 24/23 A2992 RMK AO2 LTG DSNT W T02440233
KGWO 091053Z AUTO 00000KT 9SM BKN011 OVC044 24/23 A2992 RMK AO2 SLP129 T02390233
KGWO 090953Z AUTO 15003KT 10SM FEW048 SCT065 24/23 A2991 RMK AO2 SLP125 T02440233
KGWO 090853Z AUTO 00000KT 10SM BKN044 OVC050 25/24 A2990 RMK AO2 SLP123 T02500239 55001
KGWO 090753Z AUTO 19003KT 10SM CLR 24/23 A2989 RMK AO2 SLP119 T02440233
KGWO 090743Z AUTO 19003KT 10SM SCT022 24/23 A2989 RMK AO2 T02440233
KGWO 090653Z AUTO 00000KT 10SM BKN021 25/24 A2989 RMK AO2 SLP120 T02500239
KGWO 090634Z AUTO 00000KT 8SM BKN020 24/24 A2990 RMK AO2 T02440239
KGWO 090627Z AUTO 16003KT 3SM BR SCT020 24/24 A2990 RMK AO2 T02440239
KGWO 090614Z AUTO 00000KT 1 3/4SM BR CLR 24/24 A2990 RMK AO2 T02440239
KGWO 090553Z AUTO 00000KT 7SM CLR 24/24 A2990 RMK AO2 SLP124 60012 T02440239 10283 20244 403000233 58002
KGWO 090453Z AUTO 00000KT 7SM CLR 25/24 A2992 RMK AO2 SLP128 T02500244
KGWO 090353Z AUTO 19004KT 9SM FEW050 26/24 A2992 RMK AO2 RAE08 SLP130 P0001 T02560244
KGWO 090253Z AUTO 20005KT 3SM RA BR FEW043 BKN055 BKN070 26/25 A2991 RMK AO2 RAB45 SLP127 P0004 60011 T02610250 53008
KGWO 090153Z AUTO 00000KT 9SM FEW034 BKN050 OVC065 26/25 A2990 RMK AO2 RAE48 TSE10 SLP124 P0003 T02610250
KGWO 090139Z AUTO 00000KT 8SM VCTS -RA SCT037 BKN050 OVC070 26/25 A2991 RMK AO2 TSE10 P0003 T02610250
KGWO 090131Z AUTO 00000KT 6SM -RA BR SCT037 OVC050 27/25 A2991 RMK AO2 TSE10 P0003 T02670250
KGWO 090116Z AUTO 00000KT 5SM VCTS -RA BR BKN042 BKN050 OVC065 27/26 A2990 RMK AO2 LTG DSNT NW TSE10 P0001 T02670256
KGWO 090100Z AUTO 24003KT 3SM TSRA BR FEW039 BKN055 OVC070 27/26 A2989 RMK AO2 LTG DSNT W AND NW P0001 T02670256
KGWO 090053Z AUTO 25003KT 1 1/4SM +TSRA BR FEW020 BKN042 OVC085 27/26 A2989 RMK AO2 RAB45 TSB30 SLP121 P0004 T02670256
KGWO 090049Z AUTO 25003KT 1 3/4SM +TSRA BR FEW020 BKN039 BKN065 27/26 A2989 RMK AO2 RAB45 TSB30 P0003
KGWO 090036Z AUTO 21003KT 10SM TS FEW023 SCT042 BKN070 28/25 A2988 RMK AO2 TSB30 T02780250
KGWO 082353Z AUTO 21004KT 10SM FEW021 SCT026 BKN047 28/25 A2989 RMK AO2 SLP118 T02830250 10300 20250 58008
KGWO 082345Z AUTO 20007KT 10SM SCT021 BKN026 BKN050 28/25 A2989 RMK AO2 T02830250
KGWO 082253Z AUTO 00000KT 10SM FEW070 FEW080 30/25 A2990 RMK AO2 SLP123 T03000250
KGWO 082153Z AUTO 18003KT 10SM FEW019 29/24 A2991 RMK AO2 SLP124 T02940244
KGWO 082132Z AUTO 00000KT 10SM SCT021 29/24 A2990 RMK AO2 T02940244
KGWO 082053Z AUTO VRB04KT 10SM SCT021 BKN026 29/25 A2991 RMK AO2 SLP126 T02940250 56014
KGWO 082042Z AUTO 19003KT 10SM FEW018 BKN023 BKN034 29/24 A2991 RMK AO2 T02890244
KGWO 081953Z AUTO VRB03KT 10SM SCT023 BKN030 OVC036 28/24 A2994 RMK AO2 SLP135 T02780239
KGWO 081911Z AUTO VRB05KT 10SM SCT009 OVC018 27/24 A2995 RMK AO2 T02670244
KGWO 081907Z AUTO 20005KT 10SM BKN009 OVC018 27/24 A2996 RMK AO2 CIG 006V013 T02720244
KGWO 081853Z AUTO 00000KT 10SM OVC010 26/24 A2995 RMK AO2 CIG 006V013 SLP140 T02610239
KGWO 081842Z AUTO 00000KT 10SM OVC010 26/24 A2995 RMK AO2 CIG 006V012 T02610239
KGWO 081753Z AUTO VRB04KT 10SM OVC005 25/23 A2997 RMK AO2 RAE00 SLP146 P0000 60057 T02500233 10250 20239 58006
KGWO 081653Z AUTO 19003KT 9SM -RA BKN006 BKN010 OVC034 24/23 A2999 RMK AO2 SLP153 P0023 T02390233
KGWO 081645Z AUTO 00000KT 3SM RA BR BKN007 BKN010 OVC034 24/23 A2999 RMK AO2 P0022 T02390233
KGWO 081624Z AUTO 21004KT 1 3/4SM +RA BR BKN007 OVC031 24/23 A3000 RMK AO2 P0014 T02390228
KGWO 081617Z AUTO 22005KT 1 3/4SM +RA BR SCT007 BKN010 OVC039 24/23 A2999 RMK AO2 P0010 T02390228
KGWO 081607Z AUTO 00000KT 2SM +RA BR BKN007 BKN055 OVC070 24/23 A2999 RMK AO2 P0005 T02390228
KGWO 081553Z AUTO 23005KT 3SM RA BR BKN007 BKN050 OVC075 24/23 A2999 RMK AO2 LTG DSNT S AND SW SLP153 P0017 T02390228
KGWO 081519Z AUTO 19007KT 3SM RA BR SCT009 OVC090 24/23 A2998 RMK AO2 P0007 T02390233
KGWO 081453Z AUTO 20008KT 4SM RA BR FEW011 BKN050 OVC085 24/23 A2998 RMK AO2 LTG DSNT S RAB00 SLP150 P0016 60017 T02440233 53002
KGWO 081447Z AUTO 19010KT 3SM RA BR FEW009 BKN050 OVC070 24/23 A2998 RMK AO2 LTG DSNT S RAB00 P0015
KGWO 081441Z AUTO 19009KT 2SM +RA BR SCT009 BKN015 OVC070 24/23 A2998 RMK AO2 LTG DSNT S RAB00 P0014 T02390233
KGWO 081425Z AUTO 19007KT 1 3/4SM +RA BR SCT009 BKN016 OVC043 24/23 A2998 RMK AO2 LTG DSNT SW RAB00 P0005 T02440233
KGWO 081417Z AUTO 20006KT 5SM -RA BR FEW016 BKN021 OVC045 24/23 A2998 RMK AO2 RAB00 P0001 T02440233
KGWO 081353Z AUTO 11003KT 10SM VCTS FEW021 BKN026 OVC055 25/23 A2997 RMK AO2 LTG DSNT SW AND W SLP146 T02500228
KGWO 081351Z AUTO 09004KT 10SM VCTS FEW021 BKN025 OVC055 25/23 A2997 RMK AO2 LTG DSNT SW AND W
KGWO 081332Z AUTO 10003KT 10SM SCT024 BKN055 OVC070 25/23 A2997 RMK AO2 LTG DSNT W T02500233
KGWO 081319Z AUTO 09005KT 10SM FEW005 BKN024 25/23 A2997 RMK AO2 LTG DSNT W T02500233
KGWO 081302Z AUTO 05004KT 10SM BKN025 BKN090 OVC120 24/23 A2998 RMK AO2 T02390228
KGWO 081253Z AUTO 05007KT 10SM SCT025 BKN090 OVC120 24/23 A2997 RMK AO2 RAB30E48 SLP148 P0001 T02390233
KGWO 081153Z AUTO 06004KT 9SM FEW090 BKN110 24/23 A2997 RMK AO2 RAE43 SLP148 P0007 60022 70024 T02390228 10250 20233 58000
KGWO 081145Z AUTO 05005KT 10SM FEW002 SCT090 BKN110 24/23 A2998 RMK AO2 RAE43 P0007 T02390228
KGWO 081053Z AUTO 31003KT 4SM RA BR FEW049 OVC075 24/23 A2999 RMK AO2 SLP154 P0013 T02390228
KGWO 080953Z AUTO 00000KT 4SM RA BR BKN070 OVC085 24/23 A2998 RMK AO2 RAB26 SLP148 P0002 T02440228
KGWO 080853Z AUTO 00000KT 10SM OVC100 24/23 A2998 RMK AO2 SLP148 T02440228 53000
KGWO 080753Z AUTO 00000KT 10SM OVC085 24/23 A2997 RMK AO2 SLP145 T02440233
KGWO 080653Z AUTO 00000KT 10SM FEW120 25/23 A2997 RMK AO2 SLP146 T02500233
KGWO 080553Z AUTO 00000KT 10SM CLR 25/23 A2997 RMK AO2 SLP148 T02500233 10267 20244 403170222 50004
KGWO 080453Z AUTO 00000KT 9SM SCT110 24/23 A2998 RMK AO2 SLP149 T02440233
KGWO 080353Z AUTO 19005KT 10SM CLR 25/24 A2997 RMK AO2 SLP146 T02500239
KGWO 080253Z AUTO 22005KT 9SM CLR 26/24 A2996 RMK AO2 SLP143 T02560244 51003
KGWO 080153Z AUTO 00000KT 10SM CLR 26/24 A2995 RMK AO2 SLP140 T02560239
KGWO 080053Z AUTO 00000KT 10SM FEW120 26/24 A2997 RMK AO2 SLP145 T02610244
KGWO 072353Z AUTO 22004KT 10SM CLR 27/24 A2995 RMK AO2 SLP141 60002 T02670239 10317 20261 58006
KGWO 072253Z AUTO 22004KT 10SM FEW110 27/24 A2996 RMK AO2 RAE29 SLP142 P0002 T02720239
KGWO 072153Z AUTO VRB03KT 9SM -RA BKN100 27/23 A2997 RMK AO2 LTG DSNT E RAB51 SLP147 P0000 T02670228
KGWO 072144Z AUTO VRB03KT 10SM FEW110 27/23 A2996 RMK AO2 LTG DSNT N AND E T02720228
KGWO 072120Z AUTO VRB03KT 10SM VCTS CLR 28/24 A2996 RMK AO2 LTG DSNT E T02780239
KGWO 072100Z AUTO 25006KT 10SM FEW019 SCT033 28/24 A2997 RMK AO2 LTG DSNT NE AND E T02780244
KGWO 072053Z AUTO 25006KT 10SM VCTS FEW019 BKN033 BKN050 28/24 A2997 RMK AO2 LTG DSNT NE SLP147 T02830244 55010
KGWO 072046Z AUTO VRB06KT 10SM VCTS FEW019 BKN031 BKN036 29/25 A2997 RMK AO2 LTG DSNT NE T02890250
KGWO 071953Z AUTO 23004KT 10SM CLR 30/25 A2996 RMK AO2 LTG DSNT W SLP144 T03000250
KGWO 071853Z AUTO 24003KT 10SM FEW028 31/25 A2998 RMK AO2 LTG DSNT W SLP151 T03110250
KGWO 071811Z AUTO 00000KT 10SM SCT024 BKN031 BKN041 30/24 A3000 RMK AO2 T03000244
KGWO 071753Z AUTO 24003KT 10SM BKN025 BKN031 30/24 A3000 RMK AO2 LTG DSNT NE SLP157 T03000244 10311 20228 56009
KGWO 071749Z AUTO 00000KT 10SM SCT025 BKN031 30/25 A3000 RMK AO2
KGWO 071729Z AUTO 00000KT 10SM BKN023 BKN029 29/24 A3001 RMK AO2 T02940244
KGWO 071653Z AUTO 36005KT 10SM SCT085 30/24 A3002 RMK AO2 SLP163 T03000244
KGWO 071553Z AUTO 00000KT 10SM SCT085 29/23 A3003 RMK AO2 SLP166 T02890233
KGWO 071453Z AUTO 00000KT 10SM CLR 27/24 A3002 RMK AO2 SLP163 T02670239 51014
KGWO 071427Z AUTO 00000KT 10SM FEW007 26/24 A3002 RMK AO2 T02610239
KGWO 101120Z 1012/1112 32007KT P6SM SCT250